createdAt,value
2022-12-11T00:04:44.808Z,98075.22
2022-12-11T00:14:49.521Z,98072.75
2022-12-11T00:24:54.187Z,98070.22
2022-12-11T00:35:03.058Z,98072.84
2022-12-11T00:45:06.025Z,98050.06
2022-12-11T00:55:08.021Z,98062.88
2022-12-11T01:05:12.164Z,98069.75
2022-12-11T01:15:14.056Z,98075.00
2022-12-11T01:25:15.741Z,98076.78
2022-12-11T01:35:17.951Z,98078.53
2022-12-11T01:45:24.697Z,98082.88
2022-12-11T01:55:28.710Z,98085.56
2022-12-11T02:05:30.492Z,98110.22
2022-12-11T02:15:41.678Z,98097.53
2022-12-11T02:26:10.023Z,98109.50
2022-12-11T02:36:16.752Z,98112.97
2022-12-11T02:46:22.028Z,98094.34
2022-12-11T02:56:53.903Z,98090.13
2022-12-11T03:07:01.590Z,98091.81
2022-12-11T03:17:20.090Z,98065.59
2022-12-11T03:27:38.840Z,98073.22
2022-12-11T03:37:57.752Z,98064.75
2022-12-11T03:48:02.444Z,98075.75
2022-12-11T03:58:05.209Z,98067.28
2022-12-11T04:08:08.072Z,98071.53
2022-12-11T04:18:34.245Z,98069.84
2022-12-11T04:28:37.716Z,98103.72
2022-12-11T04:38:41.489Z,98103.72
2022-12-11T04:48:43.522Z,98132.53
2022-12-11T04:58:47.121Z,98146.94
2022-12-11T05:08:48.761Z,98155.38
2022-12-11T05:18:58.741Z,98171.50
2022-12-11T05:29:00.416Z,98169.78
2022-12-11T05:39:03.834Z,98181.69
2022-12-11T05:49:06.253Z,98174.88
2022-12-11T05:59:07.990Z,98169.81
2022-12-11T06:09:13.787Z,98193.53
2022-12-11T06:19:18.412Z,98213.84
2022-12-11T06:29:20.153Z,98237.59
2022-12-11T06:39:21.855Z,98253.69
2022-12-11T06:49:23.692Z,98273.16
2022-12-11T06:59:25.413Z,98314.69
2022-12-11T07:09:27.308Z,98296.88
2022-12-11T07:19:39.093Z,98310.47
2022-12-11T07:29:40.977Z,98337.63
2022-12-11T07:39:43.194Z,98327.47
2022-12-11T07:49:45.001Z,98347.84
2022-12-11T07:59:46.851Z,98375.00
2022-12-11T08:09:50.604Z,98397.06
2022-12-11T08:19:52.729Z,98407.22
2022-12-11T08:29:54.397Z,98408.91
2022-12-11T08:39:56.055Z,98396.19
2022-12-11T08:49:59.907Z,98439.41
2022-12-11T09:00:01.776Z,98488.66
2022-12-11T09:10:06.345Z,98494.63
2022-12-11T09:20:17.068Z,98481.91
2022-12-11T09:30:18.962Z,98456.41
2022-12-11T09:40:22.150Z,98488.69
2022-12-11T09:50:27.604Z,98502.25
2022-12-11T10:00:40.165Z,98488.72
2022-12-11T10:10:51.784Z,98468.34
2022-12-11T10:20:54.771Z,98455.59
2022-12-11T10:31:19.263Z,98522.66
2022-12-11T10:41:33.813Z,98497.19
2022-12-11T10:51:40.105Z,98541.28
2022-12-11T11:01:47.101Z,98508.13
2022-12-11T11:11:50.717Z,98542.16
2022-12-11T11:22:15.325Z,98512.47
2022-12-11T11:32:24.181Z,98507.38
2022-12-11T11:42:46.178Z,98553.22
2022-12-11T11:52:55.965Z,98536.22
2022-12-11T12:03:10.842Z,98577.91
2022-12-11T12:13:51.496Z,98581.25
2022-12-11T12:24:34.922Z,98594.03
2022-12-11T12:34:46.060Z,98597.44
2022-12-11T12:45:07.746Z,98573.63
2022-12-11T12:55:23.519Z,98590.59
2022-12-11T13:05:28.232Z,98630.50
2022-12-11T13:15:34.770Z,98647.50
2022-12-11T13:25:55.336Z,98652.56
2022-12-11T13:36:25.155Z,98651.69
2022-12-11T13:46:34.763Z,98682.22
2022-12-11T13:56:39.448Z,98677.97
2022-12-11T14:06:41.846Z,98700.81
2022-12-11T14:16:43.938Z,98717.75
2022-12-11T14:26:52.663Z,98733.81
2022-12-11T14:36:56.411Z,98759.22
2022-12-11T14:47:06.222Z,98746.38
2022-12-11T14:57:20.451Z,98737.72
2022-12-11T15:07:26.594Z,98783.63
2022-12-11T15:17:31.183Z,98746.06
2022-12-11T15:27:40.390Z,98781.72
2022-12-11T15:37:52.984Z,98799.59
2022-12-11T15:47:55.481Z,98802.03
2022-12-11T15:58:03.671Z,98818.94
2022-12-11T16:08:24.462Z,98810.28
2022-12-11T16:18:29.516Z,98833.13
2022-12-11T16:28:33.389Z,98818.63
2022-12-11T16:38:39.777Z,98851.03
2022-12-11T16:48:46.758Z,98846.56
2022-12-11T16:58:49.808Z,98852.47
2022-12-11T17:08:52.519Z,98842.19
2022-12-11T17:18:57.258Z,98846.50
2022-12-11T17:29:06.899Z,98863.47
2022-12-11T17:39:11.334Z,98863.34
2022-12-11T17:49:20.584Z,98864.25
2022-12-11T17:59:25.200Z,98863.25
2022-12-11T18:09:28.267Z,98860.59
2022-12-11T18:19:42.819Z,98883.53
2022-12-11T18:29:57.850Z,98891.88
2022-12-11T18:40:00.296Z,98892.72
2022-12-11T18:50:07.605Z,98915.47
2022-12-11T19:00:23.599Z,98915.53
2022-12-11T19:10:30.384Z,98934.13
2022-12-11T19:20:57.791Z,98919.59
2022-12-11T19:31:01.916Z,98925.44
2022-12-11T19:41:12.755Z,98932.19
2022-12-11T19:51:20.971Z,98940.53
2022-12-11T20:01:29.375Z,98943.22
2022-12-11T20:11:34.567Z,98949.78
2022-12-11T20:21:37.169Z,98952.69
2022-12-11T20:31:50.845Z,98961.13
2022-12-11T20:42:03.486Z,98953.34
2022-12-11T20:52:07.263Z,98958.47
2022-12-11T21:02:13.581Z,98956.41
2022-12-11T21:12:15.941Z,98969.09
2022-12-11T21:22:20.062Z,99001.03
2022-12-11T21:32:22.047Z,99026.31
2022-12-11T21:42:28.915Z,99012.50
2022-12-11T21:52:30.860Z,99026.09
2022-12-11T22:02:36.082Z,99018.75
2022-12-11T22:12:56.498Z,99033.38
2022-12-11T22:22:58.203Z,99044.16
2022-12-11T22:33:01.956Z,99035.47
2022-12-11T22:43:11.592Z,99020.31
2022-12-11T22:53:16.481Z,99050.03
2022-12-11T23:03:18.234Z,99054.94
2022-12-11T23:13:21.183Z,99068.25
2022-12-11T23:23:22.908Z,99050.94
2022-12-11T23:33:24.901Z,99068.88
2022-12-11T23:43:27.168Z,99048.44
2022-12-11T23:53:29.459Z,99056.88
